sensor_id;sensor_type;location;lat;lon;timestamp;P1;durP1;ratioP1;P2;durP2;ratioP2
30036;SDS011;36325;51.512;-0.382;2023-05-07T00:00:38;13.23;;;6.55;;
30036;SDS011;36325;51.512;-0.382;2023-05-07T00:03:05;11.98;;;6.13;;
30036;SDS011;36325;51.512;-0.382;2023-05-07T00:05:33;10.90;;;6.35;;
30036;SDS011;36325;51.512;-0.382;2023-05-07T00:08:00;14.77;;;6.28;;
30036;SDS011;36325;51.512;-0.382;2023-05-07T00:10:28;15.77;;;7.35;;
30036;SDS011;36325;51.512;-0.382;2023-05-07T00:12:55;13.10;;;7.28;;
30036;SDS011;36325;51.512;-0.382;2023-05-07T00:15:23;17.00;;;7.28;;
30036;SDS011;36325;51.512;-0.382;2023-05-07T00:17:50;13.98;;;7.00;;
30036;SDS011;36325;51.512;-0.382;2023-05-07T00:20:17;18.13;;;6.90;;
30036;SDS011;36325;51.512;-0.382;2023-05-07T00:22:45;16.30;;;8.13;;
30036;SDS011;36325;51.512;-0.382;2023-05-07T00:25:12;15.90;;;7.78;;
30036;SDS011;36325;51.512;-0.382;2023-05-07T00:27:39;17.58;;;7.72;;
30036;SDS011;36325;51.512;-0.382;2023-05-07T00:30:06;14.80;;;7.30;;
30036;SDS011;36325;51.512;-0.382;2023-05-07T00:32:35;14.77;;;7.63;;
30036;SDS011;36325;51.512;-0.382;2023-05-07T00:35:03;23.67;;;8.27;;
30036;SDS011;36325;51.512;-0.382;2023-05-07T00:37:31;14.65;;;8.05;;
30036;SDS011;36325;51.512;-0.382;2023-05-07T00:39:59;15.00;;;7.93;;
30036;SDS011;36325;51.512;-0.382;2023-05-07T00:42:26;16.95;;;8.38;;
30036;SDS011;36325;51.512;-0.382;2023-05-07T00:44:54;14.68;;;7.78;;
30036;SDS011;36325;51.512;-0.382;2023-05-07T00:47:21;17.88;;;9.25;;
30036;SDS011;36325;51.512;-0.382;2023-05-07T00:49:49;20.35;;;8.48;;
30036;SDS011;36325;51.512;-0.382;2023-05-07T00:52:16;17.15;;;9.68;;
30036;SDS011;36325;51.512;-0.382;2023-05-07T00:54:46;21.67;;;11.10;;
30036;SDS011;36325;51.512;-0.382;2023-05-07T00:57:13;21.83;;;11.10;;
30036;SDS011;36325;51.512;-0.382;2023-05-07T00:59:41;20.38;;;11.98;;
30036;SDS011;36325;51.512;-0.382;2023-05-07T01:02:09;26.75;;;12.88;;
30036;SDS011;36325;51.512;-0.382;2023-05-07T01:04:37;22.67;;;12.35;;
30036;SDS011;36325;51.512;-0.382;2023-05-07T01:07:04;23.30;;;13.10;;
30036;SDS011;36325;51.512;-0.382;2023-05-07T01:09:32;24.67;;;13.18;;
30036;SDS011;36325;51.512;-0.382;2023-05-07T01:12:02;29.05;;;13.77;;
30036;SDS011;36325;51.512;-0.382;2023-05-07T01:14:30;31.17;;;14.32;;
30036;SDS011;36325;51.512;-0.382;2023-05-07T01:16:59;30.30;;;14.85;;
30036;SDS011;36325;51.512;-0.382;2023-05-07T01:19:26;29.30;;;14.68;;
30036;SDS011;36325;51.512;-0.382;2023-05-07T01:22:06;32.97;;;14.70;;
30036;SDS011;36325;51.512;-0.382;2023-05-07T01:24:44;29.92;;;15.25;;
30036;SDS011;36325;51.512;-0.382;2023-05-07T01:27:13;36.72;;;14.38;;
30036;SDS011;36325;51.512;-0.382;2023-05-07T01:29:41;30.52;;;15.20;;
30036;SDS011;36325;51.512;-0.382;2023-05-07T01:32:08;32.97;;;16.05;;
30036;SDS011;36325;51.512;-0.382;2023-05-07T01:34:36;36.00;;;16.33;;
30036;SDS011;36325;51.512;-0.382;2023-05-07T01:37:04;32.63;;;15.52;;
30036;SDS011;36325;51.512;-0.382;2023-05-07T01:39:31;39.53;;;16.35;;
30036;SDS011;36325;51.512;-0.382;2023-05-07T01:41:59;28.23;;;15.98;;
30036;SDS011;36325;51.512;-0.382;2023-05-07T01:44:27;31.13;;;16.77;;
30036;SDS011;36325;51.512;-0.382;2023-05-07T01:46:55;33.08;;;17.00;;
30036;SDS011;36325;51.512;-0.382;2023-05-07T01:49:24;36.22;;;16.35;;
30036;SDS011;36325;51.512;-0.382;2023-05-07T01:51:52;31.83;;;17.60;;
30036;SDS011;36325;51.512;-0.382;2023-05-07T01:54:19;36.63;;;16.77;;
30036;SDS011;36325;51.512;-0.382;2023-05-07T01:56:56;31.45;;;14.52;;
30036;SDS011;36325;51.512;-0.382;2023-05-07T01:59:23;37.92;;;16.92;;
30036;SDS011;36325;51.512;-0.382;2023-05-07T02:01:51;36.72;;;15.60;;
30036;SDS011;36325;51.512;-0.382;2023-05-07T02:04:19;35.83;;;16.20;;
30036;SDS011;36325;51.512;-0.382;2023-05-07T02:06:46;37.25;;;18.42;;
30036;SDS011;36325;51.512;-0.382;2023-05-07T02:09:14;36.78;;;16.42;;
30036;SDS011;36325;51.512;-0.382;2023-05-07T02:11:47;36.38;;;16.35;;
30036;SDS011;36325;51.512;-0.382;2023-05-07T02:14:15;36.67;;;15.80;;
30036;SDS011;36325;51.512;-0.382;2023-05-07T02:16:42;38.47;;;17.60;;
30036;SDS011;36325;51.512;-0.382;2023-05-07T02:19:12;35.45;;;15.98;;
30036;SDS011;36325;51.512;-0.382;2023-05-07T02:21:40;32.70;;;14.75;;
30036;SDS011;36325;51.512;-0.382;2023-05-07T02:24:14;33.00;;;16.08;;
30036;SDS011;36325;51.512;-0.382;2023-05-07T02:26:47;35.42;;;14.85;;
30036;SDS011;36325;51.512;-0.382;2023-05-07T02:29:14;41.85;;;16.95;;
30036;SDS011;36325;51.512;-0.382;2023-05-07T02:31:43;34.70;;;15.18;;
30036;SDS011;36325;51.512;-0.382;2023-05-07T02:34:11;33.80;;;14.85;;
30036;SDS011;36325;51.512;-0.382;2023-05-07T02:36:38;38.72;;;16.30;;
30036;SDS011;36325;51.512;-0.382;2023-05-07T02:39:09;40.15;;;16.60;;
30036;SDS011;36325;51.512;-0.382;2023-05-07T02:41:37;35.22;;;16.40;;
30036;SDS011;36325;51.512;-0.382;2023-05-07T02:44:05;38.17;;;16.77;;
30036;SDS011;36325;51.512;-0.382;2023-05-07T02:46:32;39.00;;;17.52;;
30036;SDS011;36325;51.512;-0.382;2023-05-07T02:49:04;37.08;;;16.98;;
30036;SDS011;36325;51.512;-0.382;2023-05-07T02:51:32;42.53;;;16.35;;
30036;SDS011;36325;51.512;-0.382;2023-05-07T02:54:02;37.50;;;16.00;;
30036;SDS011;36325;51.512;-0.382;2023-05-07T02:56:31;37.70;;;16.23;;
30036;SDS011;36325;51.512;-0.382;2023-05-07T02:58:59;36.78;;;16.30;;
30036;SDS011;36325;51.512;-0.382;2023-05-07T03:04:02;37.38;;;15.88;;
30036;SDS011;36325;51.512;-0.382;2023-05-07T03:06:30;28.67;;;14.00;;
30036;SDS011;36325;51.512;-0.382;2023-05-07T03:08:57;34.47;;;15.20;;
30036;SDS011;36325;51.512;-0.382;2023-05-07T03:11:24;30.05;;;13.50;;
30036;SDS011;36325;51.512;-0.382;2023-05-07T03:13:51;24.92;;;12.32;;
30036;SDS011;36325;51.512;-0.382;2023-05-07T03:16:20;32.72;;;14.95;;
30036;SDS011;36325;51.512;-0.382;2023-05-07T03:18:47;32.28;;;13.80;;
30036;SDS011;36325;51.512;-0.382;2023-05-07T03:21:15;29.17;;;14.05;;
30036;SDS011;36325;51.512;-0.382;2023-05-07T03:23:42;34.10;;;13.32;;
30036;SDS011;36325;51.512;-0.382;2023-05-07T03:26:09;25.45;;;12.07;;
30036;SDS011;36325;51.512;-0.382;2023-05-07T03:28:36;28.60;;;12.82;;
30036;SDS011;36325;51.512;-0.382;2023-05-07T03:31:08;25.98;;;11.88;;
30036;SDS011;36325;51.512;-0.382;2023-05-07T03:33:38;23.35;;;11.02;;
30036;SDS011;36325;51.512;-0.382;2023-05-07T03:36:16;24.38;;;11.38;;
30036;SDS011;36325;51.512;-0.382;2023-05-07T03:38:43;20.75;;;10.30;;
30036;SDS011;36325;51.512;-0.382;2023-05-07T03:41:11;19.98;;;9.77;;
30036;SDS011;36325;51.512;-0.382;2023-05-07T03:43:38;22.27;;;10.60;;
30036;SDS011;36325;51.512;-0.382;2023-05-07T03:46:08;25.45;;;11.35;;
30036;SDS011;36325;51.512;-0.382;2023-05-07T03:48:36;21.60;;;9.38;;
30036;SDS011;36325;51.512;-0.382;2023-05-07T03:51:04;34.28;;;11.27;;
30036;SDS011;36325;51.512;-0.382;2023-05-07T03:53:32;22.35;;;10.70;;
30036;SDS011;36325;51.512;-0.382;2023-05-07T03:55:59;27.35;;;11.07;;
30036;SDS011;36325;51.512;-0.382;2023-05-07T03:58:30;26.33;;;11.65;;
30036;SDS011;36325;51.512;-0.382;2023-05-07T04:01:02;26.67;;;10.98;;
30036;SDS011;36325;51.512;-0.382;2023-05-07T04:03:30;25.58;;;10.32;;
30036;SDS011;36325;51.512;-0.382;2023-05-07T04:05:58;27.70;;;10.85;;
30036;SDS011;36325;51.512;-0.382;2023-05-07T04:08:26;27.27;;;10.93;;
30036;SDS011;36325;51.512;-0.382;2023-05-07T04:10:54;45.88;;;13.02;;
30036;SDS011;36325;51.512;-0.382;2023-05-07T04:13:24;32.08;;;11.60;;
30036;SDS011;36325;51.512;-0.382;2023-05-07T04:15:54;25.92;;;11.30;;
30036;SDS011;36325;51.512;-0.382;2023-05-07T04:18:23;28.20;;;12.02;;
30036;SDS011;36325;51.512;-0.382;2023-05-07T04:20:50;31.33;;;10.93;;
30036;SDS011;36325;51.512;-0.382;2023-05-07T04:23:18;27.30;;;11.40;;
30036;SDS011;36325;51.512;-0.382;2023-05-07T04:25:45;24.98;;;10.73;;
30036;SDS011;36325;51.512;-0.382;2023-05-07T04:28:20;26.83;;;12.05;;
30036;SDS011;36325;51.512;-0.382;2023-05-07T04:30:48;30.60;;;11.50;;
30036;SDS011;36325;51.512;-0.382;2023-05-07T04:33:16;25.40;;;11.52;;
30036;SDS011;36325;51.512;-0.382;2023-05-07T04:35:45;24.63;;;9.80;;
30036;SDS011;36325;51.512;-0.382;2023-05-07T04:38:13;25.20;;;11.52;;
30036;SDS011;36325;51.512;-0.382;2023-05-07T04:40:41;27.30;;;11.02;;
30036;SDS011;36325;51.512;-0.382;2023-05-07T04:43:11;26.65;;;10.88;;
30036;SDS011;36325;51.512;-0.382;2023-05-07T04:45:45;24.13;;;11.15;;
30036;SDS011;36325;51.512;-0.382;2023-05-07T04:48:12;29.25;;;11.35;;
30036;SDS011;36325;51.512;-0.382;2023-05-07T04:50:41;27.55;;;11.20;;
30036;SDS011;36325;51.512;-0.382;2023-05-07T04:53:10;26.02;;;11.32;;
30036;SDS011;36325;51.512;-0.382;2023-05-07T04:55:37;29.42;;;11.15;;
30036;SDS011;36325;51.512;-0.382;2023-05-07T04:58:05;28.58;;;12.50;;
30036;SDS011;36325;51.512;-0.382;2023-05-07T05:00:34;30.88;;;11.50;;
30036;SDS011;36325;51.512;-0.382;2023-05-07T05:03:04;27.27;;;11.10;;
30036;SDS011;36325;51.512;-0.382;2023-05-07T05:05:32;23.80;;;10.23;;
30036;SDS011;36325;51.512;-0.382;2023-05-07T05:08:00;24.52;;;11.68;;
30036;SDS011;36325;51.512;-0.382;2023-05-07T05:10:27;28.40;;;10.30;;
30036;SDS011;36325;51.512;-0.382;2023-05-07T05:12:55;22.45;;;10.52;;
30036;SDS011;36325;51.512;-0.382;2023-05-07T05:15:23;21.88;;;9.07;;
30036;SDS011;36325;51.512;-0.382;2023-05-07T05:17:51;26.25;;;11.05;;
30036;SDS011;36325;51.512;-0.382;2023-05-07T05:20:18;21.45;;;10.15;;
30036;SDS011;36325;51.512;-0.382;2023-05-07T05:22:47;26.50;;;10.93;;
30036;SDS011;36325;51.512;-0.382;2023-05-07T05:25:14;26.63;;;11.77;;
30036;SDS011;36325;51.512;-0.382;2023-05-07T05:27:42;17.58;;;8.77;;
30036;SDS011;36325;51.512;-0.382;2023-05-07T05:30:09;24.55;;;10.02;;
30036;SDS011;36325;51.512;-0.382;2023-05-07T05:32:37;21.63;;;10.07;;
30036;SDS011;36325;51.512;-0.382;2023-05-07T05:35:05;21.67;;;10.35;;
30036;SDS011;36325;51.512;-0.382;2023-05-07T05:37:33;23.23;;;10.45;;
30036;SDS011;36325;51.512;-0.382;2023-05-07T05:40:02;23.73;;;10.80;;
30036;SDS011;36325;51.512;-0.382;2023-05-07T05:42:30;25.17;;;10.25;;
30036;SDS011;36325;51.512;-0.382;2023-05-07T05:44:57;21.98;;;10.88;;
30036;SDS011;36325;51.512;-0.382;2023-05-07T05:47:25;25.15;;;10.63;;
30036;SDS011;36325;51.512;-0.382;2023-05-07T05:49:54;24.05;;;11.18;;
30036;SDS011;36325;51.512;-0.382;2023-05-07T05:52:22;22.52;;;11.50;;
30036;SDS011;36325;51.512;-0.382;2023-05-07T05:54:50;19.95;;;10.82;;
30036;SDS011;36325;51.512;-0.382;2023-05-07T05:57:18;21.75;;;10.68;;
30036;SDS011;36325;51.512;-0.382;2023-05-07T05:59:46;22.95;;;11.30;;
30036;SDS011;36325;51.512;-0.382;2023-05-07T06:02:13;24.27;;;12.43;;
30036;SDS011;36325;51.512;-0.382;2023-05-07T06:04:41;29.02;;;11.23;;
30036;SDS011;36325;51.512;-0.382;2023-05-07T06:07:12;21.33;;;10.60;;
30036;SDS011;36325;51.512;-0.382;2023-05-07T06:09:40;23.77;;;11.50;;
30036;SDS011;36325;51.512;-0.382;2023-05-07T06:12:07;21.65;;;10.45;;
30036;SDS011;36325;51.512;-0.382;2023-05-07T06:14:35;25.33;;;11.75;;
30036;SDS011;36325;51.512;-0.382;2023-05-07T06:17:02;23.95;;;11.48;;
30036;SDS011;36325;51.512;-0.382;2023-05-07T06:19:30;23.42;;;11.63;;
30036;SDS011;36325;51.512;-0.382;2023-05-07T06:21:58;24.17;;;11.35;;
30036;SDS011;36325;51.512;-0.382;2023-05-07T06:24:29;22.47;;;11.07;;
30036;SDS011;36325;51.512;-0.382;2023-05-07T06:26:57;23.08;;;10.70;;
30036;SDS011;36325;51.512;-0.382;2023-05-07T06:29:26;26.65;;;12.30;;
30036;SDS011;36325;51.512;-0.382;2023-05-07T06:32:11;24.08;;;11.60;;
30036;SDS011;36325;51.512;-0.382;2023-05-07T06:34:42;28.42;;;12.02;;
30036;SDS011;36325;51.512;-0.382;2023-05-07T06:37:09;23.95;;;10.75;;
30036;SDS011;36325;51.512;-0.382;2023-05-07T06:39:49;19.80;;;9.13;;
30036;SDS011;36325;51.512;-0.382;2023-05-07T06:42:16;21.50;;;10.80;;
30036;SDS011;36325;51.512;-0.382;2023-05-07T06:44:46;25.40;;;10.60;;
30036;SDS011;36325;51.512;-0.382;2023-05-07T06:47:16;24.02;;;10.15;;
30036;SDS011;36325;51.512;-0.382;2023-05-07T06:49:47;23.92;;;11.20;;
30036;SDS011;36325;51.512;-0.382;2023-05-07T06:52:16;20.25;;;10.02;;
30036;SDS011;36325;51.512;-0.382;2023-05-07T06:54:45;21.92;;;10.77;;
30036;SDS011;36325;51.512;-0.382;2023-05-07T06:57:15;21.60;;;10.95;;
30036;SDS011;36325;51.512;-0.382;2023-05-07T06:59:42;18.98;;;10.13;;
30036;SDS011;36325;51.512;-0.382;2023-05-07T07:02:10;18.38;;;10.35;;
30036;SDS011;36325;51.512;-0.382;2023-05-07T07:04:37;14.68;;;8.30;;
30036;SDS011;36325;51.512;-0.382;2023-05-07T07:07:08;18.02;;;8.93;;
30036;SDS011;36325;51.512;-0.382;2023-05-07T07:09:40;20.38;;;10.10;;
30036;SDS011;36325;51.512;-0.382;2023-05-07T07:12:08;21.25;;;9.57;;
30036;SDS011;36325;51.512;-0.382;2023-05-07T07:14:38;17.58;;;8.80;;
30036;SDS011;36325;51.512;-0.382;2023-05-07T07:17:06;16.50;;;8.15;;
30036;SDS011;36325;51.512;-0.382;2023-05-07T07:19:33;16.75;;;8.57;;
30036;SDS011;36325;51.512;-0.382;2023-05-07T07:22:02;14.75;;;6.68;;
30036;SDS011;36325;51.512;-0.382;2023-05-07T07:24:30;11.98;;;7.43;;
30036;SDS011;36325;51.512;-0.382;2023-05-07T07:27:01;12.57;;;7.05;;
30036;SDS011;36325;51.512;-0.382;2023-05-07T07:29:30;13.35;;;6.80;;
30036;SDS011;36325;51.512;-0.382;2023-05-07T07:31:57;13.20;;;6.35;;
30036;SDS011;36325;51.512;-0.382;2023-05-07T07:34:25;12.45;;;6.45;;
30036;SDS011;36325;51.512;-0.382;2023-05-07T07:36:52;13.07;;;6.93;;
30036;SDS011;36325;51.512;-0.382;2023-05-07T07:39:20;14.10;;;5.82;;
30036;SDS011;36325;51.512;-0.382;2023-05-07T07:41:50;11.85;;;6.30;;
30036;SDS011;36325;51.512;-0.382;2023-05-07T07:44:19;12.13;;;7.07;;
30036;SDS011;36325;51.512;-0.382;2023-05-07T07:49:20;15.68;;;7.43;;
30036;SDS011;36325;51.512;-0.382;2023-05-07T07:51:47;12.63;;;7.20;;
30036;SDS011;36325;51.512;-0.382;2023-05-07T07:54:15;16.35;;;8.02;;
30036;SDS011;36325;51.512;-0.382;2023-05-07T07:56:43;12.50;;;7.15;;
30036;SDS011;36325;51.512;-0.382;2023-05-07T07:59:12;11.57;;;6.63;;
30036;SDS011;36325;51.512;-0.382;2023-05-07T08:01:45;12.70;;;6.55;;
30036;SDS011;36325;51.512;-0.382;2023-05-07T08:04:15;9.15;;;5.80;;
30036;SDS011;36325;51.512;-0.382;2023-05-07T08:06:43;15.30;;;7.28;;
30036;SDS011;36325;51.512;-0.382;2023-05-07T08:09:10;12.18;;;6.93;;
30036;SDS011;36325;51.512;-0.382;2023-05-07T08:11:39;12.43;;;6.13;;
30036;SDS011;36325;51.512;-0.382;2023-05-07T08:14:07;15.50;;;6.75;;
30036;SDS011;36325;51.512;-0.382;2023-05-07T08:16:35;12.55;;;7.05;;
30036;SDS011;36325;51.512;-0.382;2023-05-07T08:19:02;11.50;;;7.03;;
30036;SDS011;36325;51.512;-0.382;2023-05-07T08:21:30;13.25;;;7.47;;
30036;SDS011;36325;51.512;-0.382;2023-05-07T08:24:00;13.98;;;6.53;;
30036;SDS011;36325;51.512;-0.382;2023-05-07T08:26:28;11.82;;;7.10;;
30036;SDS011;36325;51.512;-0.382;2023-05-07T08:28:55;13.68;;;7.60;;
30036;SDS011;36325;51.512;-0.382;2023-05-07T08:31:23;11.05;;;6.95;;
30036;SDS011;36325;51.512;-0.382;2023-05-07T08:33:50;14.02;;;6.32;;
30036;SDS011;36325;51.512;-0.382;2023-05-07T08:36:18;15.75;;;7.22;;
30036;SDS011;36325;51.512;-0.382;2023-05-07T08:38:46;12.98;;;7.82;;
30036;SDS011;36325;51.512;-0.382;2023-05-07T08:41:13;13.15;;;7.97;;
30036;SDS011;36325;51.512;-0.382;2023-05-07T08:43:47;14.43;;;8.38;;
30036;SDS011;36325;51.512;-0.382;2023-05-07T08:46:20;14.93;;;8.18;;
30036;SDS011;36325;51.512;-0.382;2023-05-07T08:48:52;14.23;;;7.82;;
30036;SDS011;36325;51.512;-0.382;2023-05-07T08:51:20;18.13;;;7.43;;
30036;SDS011;36325;51.512;-0.382;2023-05-07T08:53:48;13.60;;;5.97;;
30036;SDS011;36325;51.512;-0.382;2023-05-07T08:56:22;15.98;;;8.35;;
30036;SDS011;36325;51.512;-0.382;2023-05-07T08:58:53;15.85;;;7.47;;
30036;SDS011;36325;51.512;-0.382;2023-05-07T09:01:26;20.13;;;9.00;;
30036;SDS011;36325;51.512;-0.382;2023-05-07T09:03:55;11.63;;;6.82;;
30036;SDS011;36325;51.512;-0.382;2023-05-07T09:06:25;10.77;;;6.45;;
30036;SDS011;36325;51.512;-0.382;2023-05-07T09:08:53;8.43;;;5.32;;
30036;SDS011;36325;51.512;-0.382;2023-05-07T09:11:24;10.30;;;6.38;;
30036;SDS011;36325;51.512;-0.382;2023-05-07T09:13:55;9.95;;;5.80;;
30036;SDS011;36325;51.512;-0.382;2023-05-07T09:16:24;9.93;;;5.78;;
30036;SDS011;36325;51.512;-0.382;2023-05-07T09:18:54;9.05;;;5.20;;
30036;SDS011;36325;51.512;-0.382;2023-05-07T09:21:22;9.80;;;6.13;;
30036;SDS011;36325;51.512;-0.382;2023-05-07T09:23:52;10.18;;;6.18;;
30036;SDS011;36325;51.512;-0.382;2023-05-07T09:26:25;11.15;;;7.03;;
30036;SDS011;36325;51.512;-0.382;2023-05-07T09:28:54;10.50;;;6.43;;
30036;SDS011;36325;51.512;-0.382;2023-05-07T09:31:22;9.70;;;6.88;;
30036;SDS011;36325;51.512;-0.382;2023-05-07T09:36:25;12.10;;;5.72;;
30036;SDS011;36325;51.512;-0.382;2023-05-07T09:38:53;10.38;;;5.85;;
30036;SDS011;36325;51.512;-0.382;2023-05-07T09:41:23;6.22;;;4.63;;
30036;SDS011;36325;51.512;-0.382;2023-05-07T09:44:13;7.40;;;4.72;;
30036;SDS011;36325;51.512;-0.382;2023-05-07T09:46:46;6.50;;;5.07;;
30036;SDS011;36325;51.512;-0.382;2023-05-07T09:49:23;6.90;;;4.45;;
30036;SDS011;36325;51.512;-0.382;2023-05-07T09:52:00;7.70;;;4.72;;
30036;SDS011;36325;51.512;-0.382;2023-05-07T09:54:32;8.07;;;4.13;;
30036;SDS011;36325;51.512;-0.382;2023-05-07T09:57:01;5.72;;;3.70;;
30036;SDS011;36325;51.512;-0.382;2023-05-07T09:59:30;14.50;;;6.15;;
30036;SDS011;36325;51.512;-0.382;2023-05-07T10:02:01;7.78;;;4.30;;
30036;SDS011;36325;51.512;-0.382;2023-05-07T10:04:35;7.32;;;4.30;;
30036;SDS011;36325;51.512;-0.382;2023-05-07T10:07:03;5.63;;;4.10;;
30036;SDS011;36325;51.512;-0.382;2023-05-07T10:09:33;5.13;;;3.60;;
30036;SDS011;36325;51.512;-0.382;2023-05-07T10:12:09;7.43;;;4.40;;
30036;SDS011;36325;51.512;-0.382;2023-05-07T10:14:36;6.57;;;4.57;;
30036;SDS011;36325;51.512;-0.382;2023-05-07T10:17:04;8.23;;;4.72;;
30036;SDS011;36325;51.512;-0.382;2023-05-07T10:19:33;8.68;;;5.15;;
30036;SDS011;36325;51.512;-0.382;2023-05-07T10:22:04;8.77;;;5.80;;
30036;SDS011;36325;51.512;-0.382;2023-05-07T10:24:38;10.80;;;5.68;;
30036;SDS011;36325;51.512;-0.382;2023-05-07T10:27:11;8.13;;;5.05;;
30036;SDS011;36325;51.512;-0.382;2023-05-07T10:35:16;9.30;;;5.03;;
30036;SDS011;36325;51.512;-0.382;2023-05-07T10:37:47;8.38;;;5.35;;
30036;SDS011;36325;51.512;-0.382;2023-05-07T10:40:15;8.93;;;5.65;;
30036;SDS011;36325;51.512;-0.382;2023-05-07T10:42:59;7.50;;;5.18;;
30036;SDS011;36325;51.512;-0.382;2023-05-07T10:45:33;7.10;;;5.22;;
30036;SDS011;36325;51.512;-0.382;2023-05-07T10:56:46;10.73;;;5.20;;
30036;SDS011;36325;51.512;-0.382;2023-05-07T11:01:54;7.90;;;4.70;;
30036;SDS011;36325;51.512;-0.382;2023-05-07T11:04:34;6.50;;;4.68;;
30036;SDS011;36325;51.512;-0.382;2023-05-07T11:07:26;7.55;;;5.07;;
30036;SDS011;36325;51.512;-0.382;2023-05-07T11:10:05;7.55;;;4.60;;
30036;SDS011;36325;51.512;-0.382;2023-05-07T11:15:33;8.70;;;5.85;;
30036;SDS011;36325;51.512;-0.382;2023-05-07T11:18:48;8.85;;;4.35;;
30036;SDS011;36325;51.512;-0.382;2023-05-07T11:21:41;5.43;;;4.03;;
30036;SDS011;36325;51.512;-0.382;2023-05-07T11:24:31;5.65;;;4.05;;
30036;SDS011;36325;51.512;-0.382;2023-05-07T11:27:11;5.40;;;3.67;;
30036;SDS011;36325;51.512;-0.382;2023-05-07T11:29:38;6.55;;;3.97;;
30036;SDS011;36325;51.512;-0.382;2023-05-07T11:32:10;5.30;;;3.70;;
30036;SDS011;36325;51.512;-0.382;2023-05-07T11:34:57;6.70;;;3.90;;
30036;SDS011;36325;51.512;-0.382;2023-05-07T11:37:26;5.85;;;4.45;;
30036;SDS011;36325;51.512;-0.382;2023-05-07T11:42:32;8.23;;;4.50;;
30036;SDS011;36325;51.512;-0.382;2023-05-07T11:45:01;9.07;;;4.80;;
30036;SDS011;36325;51.512;-0.382;2023-05-07T11:47:32;6.35;;;4.55;;
30036;SDS011;36325;51.512;-0.382;2023-05-07T11:50:06;6.68;;;4.43;;
30036;SDS011;36325;51.512;-0.382;2023-05-07T11:52:34;9.07;;;4.18;;
30036;SDS011;36325;51.512;-0.382;2023-05-07T11:55:02;6.65;;;3.97;;
30036;SDS011;36325;51.512;-0.382;2023-05-07T11:57:32;6.90;;;4.03;;
30036;SDS011;36325;51.512;-0.382;2023-05-07T12:00:01;7.10;;;4.65;;
30036;SDS011;36325;51.512;-0.382;2023-05-07T12:02:40;6.45;;;3.90;;
30036;SDS011;36325;51.512;-0.382;2023-05-07T12:05:08;5.57;;;3.97;;
30036;SDS011;36325;51.512;-0.382;2023-05-07T12:07:36;4.90;;;3.42;;
30036;SDS011;36325;51.512;-0.382;2023-05-07T12:10:04;7.65;;;3.83;;
30036;SDS011;36325;51.512;-0.382;2023-05-07T12:12:39;6.38;;;4.15;;
30036;SDS011;36325;51.512;-0.382;2023-05-07T12:15:15;6.38;;;3.78;;
30036;SDS011;36325;51.512;-0.382;2023-05-07T12:17:43;6.25;;;4.55;;
30036;SDS011;36325;51.512;-0.382;2023-05-07T12:20:11;7.18;;;4.20;;
30036;SDS011;36325;51.512;-0.382;2023-05-07T12:22:40;5.50;;;3.60;;
30036;SDS011;36325;51.512;-0.382;2023-05-07T12:25:08;5.72;;;3.28;;
30036;SDS011;36325;51.512;-0.382;2023-05-07T12:27:40;5.32;;;3.70;;
30036;SDS011;36325;51.512;-0.382;2023-05-07T12:30:10;3.83;;;3.00;;
30036;SDS011;36325;51.512;-0.382;2023-05-07T12:32:39;7.07;;;3.35;;
30036;SDS011;36325;51.512;-0.382;2023-05-07T12:35:07;6.97;;;3.83;;
30036;SDS011;36325;51.512;-0.382;2023-05-07T12:37:36;5.82;;;3.47;;
30036;SDS011;36325;51.512;-0.382;2023-05-07T12:40:09;7.85;;;3.20;;
30036;SDS011;36325;51.512;-0.382;2023-05-07T12:42:38;10.60;;;4.90;;
30036;SDS011;36325;51.512;-0.382;2023-05-07T12:45:13;8.70;;;4.22;;
30036;SDS011;36325;51.512;-0.382;2023-05-07T12:47:43;5.25;;;3.15;;
30036;SDS011;36325;51.512;-0.382;2023-05-07T12:50:12;5.10;;;2.75;;
30036;SDS011;36325;51.512;-0.382;2023-05-07T12:52:52;3.95;;;2.88;;
30036;SDS011;36325;51.512;-0.382;2023-05-07T12:55:20;4.63;;;3.50;;
30036;SDS011;36325;51.512;-0.382;2023-05-07T12:57:47;5.78;;;2.95;;
30036;SDS011;36325;51.512;-0.382;2023-05-07T13:00:17;6.05;;;2.88;;
30036;SDS011;36325;51.512;-0.382;2023-05-07T13:02:58;3.85;;;2.97;;
30036;SDS011;36325;51.512;-0.382;2023-05-07T13:05:26;5.45;;;3.22;;
30036;SDS011;36325;51.512;-0.382;2023-05-07T13:07:54;4.72;;;2.72;;
30036;SDS011;36325;51.512;-0.382;2023-05-07T13:10:22;3.83;;;3.28;;
30036;SDS011;36325;51.512;-0.382;2023-05-07T13:12:51;4.00;;;2.55;;
30036;SDS011;36325;51.512;-0.382;2023-05-07T13:15:18;3.85;;;3.08;;
30036;SDS011;36325;51.512;-0.382;2023-05-07T13:17:46;5.80;;;3.08;;
30036;SDS011;36325;51.512;-0.382;2023-05-07T13:20:13;16.40;;;8.52;;
30036;SDS011;36325;51.512;-0.382;2023-05-07T13:22:42;6.30;;;4.45;;
30036;SDS011;36325;51.512;-0.382;2023-05-07T13:25:10;17.48;;;12.35;;
30036;SDS011;36325;51.512;-0.382;2023-05-07T13:27:38;11.85;;;7.03;;
30036;SDS011;36325;51.512;-0.382;2023-05-07T13:30:06;4.00;;;2.72;;
30036;SDS011;36325;51.512;-0.382;2023-05-07T13:32:34;4.60;;;3.05;;
30036;SDS011;36325;51.512;-0.382;2023-05-07T13:35:02;2.92;;;2.55;;
30036;SDS011;36325;51.512;-0.382;2023-05-07T13:37:30;2.90;;;2.00;;
30036;SDS011;36325;51.512;-0.382;2023-05-07T13:39:58;3.63;;;2.63;;
30036;SDS011;36325;51.512;-0.382;2023-05-07T13:42:26;4.82;;;2.72;;
30036;SDS011;36325;51.512;-0.382;2023-05-07T13:44:54;3.42;;;2.10;;
30036;SDS011;36325;51.512;-0.382;2023-05-07T13:47:32;4.40;;;2.78;;
30036;SDS011;36325;51.512;-0.382;2023-05-07T13:50:07;4.10;;;2.70;;
30036;SDS011;36325;51.512;-0.382;2023-05-07T13:52:36;3.70;;;1.90;;
30036;SDS011;36325;51.512;-0.382;2023-05-07T13:55:16;3.80;;;2.38;;
30036;SDS011;36325;51.512;-0.382;2023-05-07T13:57:44;2.90;;;2.10;;
30036;SDS011;36325;51.512;-0.382;2023-05-07T14:00:13;6.32;;;2.05;;
30036;SDS011;36325;51.512;-0.382;2023-05-07T14:02:42;3.65;;;1.85;;
30036;SDS011;36325;51.512;-0.382;2023-05-07T14:05:10;5.55;;;1.95;;
30036;SDS011;36325;51.512;-0.382;2023-05-07T14:07:38;5.22;;;2.58;;
30036;SDS011;36325;51.512;-0.382;2023-05-07T14:10:05;3.63;;;2.30;;
30036;SDS011;36325;51.512;-0.382;2023-05-07T14:12:33;2.63;;;1.70;;
30036;SDS011;36325;51.512;-0.382;2023-05-07T14:15:00;2.33;;;1.63;;
30036;SDS011;36325;51.512;-0.382;2023-05-07T14:17:27;4.15;;;1.80;;
30036;SDS011;36325;51.512;-0.382;2023-05-07T14:19:55;2.70;;;1.83;;
30036;SDS011;36325;51.512;-0.382;2023-05-07T14:22:22;2.67;;;1.90;;
30036;SDS011;36325;51.512;-0.382;2023-05-07T14:24:50;2.78;;;1.88;;
30036;SDS011;36325;51.512;-0.382;2023-05-07T14:27:30;4.43;;;1.60;;
30036;SDS011;36325;51.512;-0.382;2023-05-07T14:29:58;4.10;;;2.25;;
30036;SDS011;36325;51.512;-0.382;2023-05-07T14:32:25;3.78;;;1.95;;
30036;SDS011;36325;51.512;-0.382;2023-05-07T14:34:52;1.90;;;1.42;;
30036;SDS011;36325;51.512;-0.382;2023-05-07T14:37:20;1.50;;;1.10;;
30036;SDS011;36325;51.512;-0.382;2023-05-07T14:39:47;3.13;;;1.20;;
30036;SDS011;36325;51.512;-0.382;2023-05-07T14:42:16;2.80;;;1.38;;
30036;SDS011;36325;51.512;-0.382;2023-05-07T14:44:46;2.63;;;1.45;;
30036;SDS011;36325;51.512;-0.382;2023-05-07T14:47:14;2.38;;;0.90;;
30036;SDS011;36325;51.512;-0.382;2023-05-07T14:49:44;2.67;;;1.65;;
30036;SDS011;36325;51.512;-0.382;2023-05-07T14:52:11;2.42;;;1.27;;
30036;SDS011;36325;51.512;-0.382;2023-05-07T14:54:38;6.07;;;1.30;;
30036;SDS011;36325;51.512;-0.382;2023-05-07T14:57:06;1.58;;;1.13;;
30036;SDS011;36325;51.512;-0.382;2023-05-07T14:59:37;2.67;;;1.30;;
30036;SDS011;36325;51.512;-0.382;2023-05-07T15:02:05;3.38;;;1.27;;
30036;SDS011;36325;51.512;-0.382;2023-05-07T15:04:35;1.63;;;1.15;;